Terminal Aerodrome Forecast
Issued by NWS Amarillo, TX

Home | Current Version | Previous Version | Text Only | Print | Product List | Glossary On
Versions: 1 2 3 4 5 6 7 8 9 10 11 12 13
187
FTUS44 KAMA 252349
TAFDHT
TAF
KDHT 252349Z 2600/2624 06014KT P6SM OVC070
      TEMPO 2600/2604 -SHRA
     FM260400 02021G32KT P6SM -SHRA OVC015
     FM261400 35015G25KT P6SM SCT025
     FM262000 28012KT P6SM SCT300=

USA.gov is the U.S. government's official web portal to all federal, state and local government web resources and services.